Time;durP1;ratioP1;P1;durP2;ratioP2;P2;SDS_P1;SDS_P2;PMS_P1;PMS_P2;Temp;Humidity;BMP_temperature;BMP_pressure;BME280_temperature;BME280_humidity;BME280_pressure;Samples;Min_cycle;Max_cycle;Signal;HPM_P1;HPM_P2
2021/05/21 00:02:00;;;;;;;4.00;1.73;;;;;;;;;;5006109;28;20749;-74
2021/05/21 00:04:27;;;;;;;1.93;1.50;;;;;;;;;;4993844;28;20424;-74
2021/05/21 00:06:53;;;;;;;2.93;1.60;;;;;;;;;;4992724;28;20790;-74
2021/05/21 00:09:19;;;;;;;5.90;1.40;;;;;;;;;;4993848;28;20503;-76
2021/05/21 00:11:45;;;;;;;3.63;1.30;;;;;;;;;;4994068;28;20409;-76
2021/05/21 00:14:11;;;;;;;3.73;1.70;;;;;;;;;;4993300;28;20523;-74
2021/05/21 00:16:37;;;;;;;1.67;1.53;;;;;;;;;;4975738;28;20392;-74
2021/05/21 00:19:03;;;;;;;3.00;1.33;;;13.40;1.00;;;;;;4977247;28;20408;-74
2021/05/21 00:21:29;;;;;;;1.60;1.20;;;;;;;;;;4993340;28;20888;-74
2021/05/21 00:23:55;;;;;;;2.20;1.70;;;;;;;;;;4993909;28;20162;-74
2021/05/21 00:26:21;;;;;;;1.97;1.30;;;;;;;;;;4993713;28;20471;-74
2021/05/21 00:28:52;;;;;;;1.50;1.40;;;13.30;1.00;;;;;;4987174;28;20417;-74
2021/05/21 00:31:18;;;;;;;2.40;1.50;;;;;;;;;;4984963;28;20995;-74
2021/05/21 00:33:44;;;;;;;2.00;1.20;;;;;;;;;;4993487;28;20447;-74
2021/05/21 00:36:10;;;;;;;2.30;1.30;;;;;;;;;;4992984;28;20432;-74
2021/05/21 00:38:36;;;;;;;2.93;1.63;;;;;;;;;;4993567;28;20397;-74
2021/05/21 00:41:03;;;;;;;1.63;1.50;;;13.30;1.00;;;;;;4993510;28;20393;-74
2021/05/21 00:43:29;;;;;;;4.93;1.37;;;;;;;;;;4981600;28;20777;-74
2021/05/21 00:45:55;;;;;;;6.17;1.57;;;;;;;;;;4974697;28;20477;-74
2021/05/21 00:48:21;;;;;;;1.67;1.43;;;;;;;;;;4993291;28;20423;-74
2021/05/21 00:50:49;;;;;;;3.00;1.53;;;;;;;;;;4995026;28;21052;-74
2021/05/21 00:53:15;;;;;;;1.57;1.20;;;;;;;;;;4997892;28;20400;-75
2021/05/21 00:55:41;;;;;;;2.23;1.40;;;;;;;;;;4997062;28;20491;-76
2021/05/21 00:58:07;;;;;;;5.73;1.80;;;;;;;;;;4993547;28;20452;-76
2021/05/21 01:00:33;;;;;;;2.10;1.20;;;;;;;;;;4997413;28;20432;-76
2021/05/21 01:02:59;;;;;;;1.43;1.10;;;;;;;;;;4996878;28;20511;-76
2021/05/21 01:05:25;;;;;;;1.43;1.30;;;;;;;;;;4997312;28;20485;-76
2021/05/21 01:07:51;;;;;;;1.50;1.40;;;;;;;;;;5012508;28;20425;-74
2021/05/21 01:10:18;;;;;;;2.60;1.57;;;;;;;;;;4995915;28;20436;-74
2021/05/21 01:12:44;;;;;;;4.47;1.87;;;;;;;;;;4981064;28;20412;-74
2021/05/21 01:15:11;;;;;;;1.43;1.20;;;13.30;1.00;;;;;;4997265;28;20555;-74
2021/05/21 01:17:37;;;;;;;2.67;1.40;;;;;;;;;;4995709;28;20425;-74
2021/05/21 01:20:09;;;;;;;4.40;1.37;;;13.30;1.00;;;;;;4997055;28;20791;-74
2021/05/21 01:22:34;;;;;;;1.60;1.50;;;;;;;;;;4996423;28;20864;-74
2021/05/21 01:25:00;;;;;;;4.50;1.37;;;;;;;;;;4992479;28;20539;-74
2021/05/21 01:27:27;;;;;;;1.83;1.40;;;;;;;;;;4995410;28;20432;-74
2021/05/21 01:29:53;;;;;;;3.43;1.57;;;;;;;;;;4996678;28;20404;-74
2021/05/21 01:32:19;;;;;;;4.50;1.40;;;;;;;;;;4997022;28;20452;-74
2021/05/21 01:34:45;;;;;;;3.43;1.70;;;;;;;;;;4996475;28;20427;-74
2021/05/21 01:37:19;;;;;;;3.33;1.87;;;13.20;1.00;;;;;;4996216;28;20425;-74
2021/05/21 01:39:46;;;;;;;1.43;1.20;;;13.20;1.00;;;;;;4996796;28;20474;-74
2021/05/21 01:42:14;;;;;;;1.73;1.30;;;13.30;1.00;;;;;;4996441;28;20464;-74
2021/05/21 01:44:40;;;;;;;3.00;1.43;;;;;;;;;;4994985;28;20420;-74
2021/05/21 01:47:06;;;;;;;2.07;1.40;;;;;;;;;;4996031;28;20412;-74
2021/05/21 01:49:33;;;;;;;1.30;1.20;;;;;;;;;;4996522;28;20409;-74
2021/05/21 01:52:00;;;;;;;1.97;1.60;;;13.20;1.00;;;;;;4996022;28;20871;-74
2021/05/21 01:54:28;;;;;;;2.13;1.47;;;13.20;1.00;;;;;;4995203;28;20523;-76
2021/05/21 01:56:54;;;;;;;1.63;1.43;;;;;;;;;;4989417;28;20416;-76
2021/05/21 01:59:23;;;;;;;1.37;1.27;;;13.20;1.00;;;;;;4996303;28;20368;-76
2021/05/21 02:01:49;;;;;;;1.60;1.07;;;;;;;;;;4995788;28;20401;-75
2021/05/21 02:04:15;;;;;;;6.80;1.83;;;;;;;;;;4996245;28;20408;-75
2021/05/21 02:06:42;;;;;;;1.20;1.10;;;;;;;;;;5001406;28;20921;-76
2021/05/21 02:09:11;;;;;;;2.10;1.23;;;13.10;1.00;;;;;;5012120;28;20404;-76
2021/05/21 02:11:38;;;;;;;5.57;1.37;;;13.20;1.00;;;;;;4996297;28;20428;-76
2021/05/21 02:14:04;;;;;;;1.97;1.37;;;13.20;1.00;;;;;;4994940;28;20412;-75
2021/05/21 02:16:31;;;;;;;5.60;1.77;;;;;;;;;;4995586;28;20493;-75
2021/05/21 02:18:57;;;;;;;3.20;1.33;;;;;;;;;;4982429;28;20825;-76
2021/05/21 02:21:28;;;;;;;2.63;1.40;;;;;;;;;;4984530;28;20479;-76
2021/05/21 02:23:54;;;;;;;1.93;1.40;;;;;;;;;;4995917;28;20468;-74
2021/05/21 02:26:20;;;;;;;2.77;1.53;;;;;;;;;;4990904;28;20486;-74
2021/05/21 02:28:46;;;;;;;1.33;1.23;;;;;;;;;;4994200;28;20409;-74
2021/05/21 02:31:12;;;;;;;3.23;1.60;;;;;;;;;;4994473;28;20421;-74
2021/05/21 02:33:38;;;;;;;1.90;1.40;;;;;;;;;;4995642;28;20404;-74
2021/05/21 02:36:04;;;;;;;6.37;1.70;;;13.20;1.00;;;;;;4995392;28;20966;-74
2021/05/21 02:38:30;;;;;;;5.73;1.53;;;;;;;;;;4995411;28;20946;-74
2021/05/21 02:40:56;;;;;;;1.97;1.27;;;;;;;;;;4983244;28;20492;-76
2021/05/21 02:43:22;;;;;;;10.03;1.33;;;;;;;;;;4976123;28;20434;-76
2021/05/21 02:45:48;;;;;;;1.63;1.37;;;13.10;1.00;;;;;;4976350;28;20395;-76
2021/05/21 02:48:14;;;;;;;1.57;1.33;;;;;;;;;;4986769;28;20413;-76
2021/05/21 02:50:42;;;;;;;8.00;1.50;;;;;;;;;;4994519;28;20417;-76
2021/05/21 02:53:08;;;;;;;5.40;1.30;;;;;;;;;;4995433;28;20390;-76
2021/05/21 02:55:34;;;;;;;1.27;1.17;;;;;;;;;;4995279;28;20463;-76
2021/05/21 02:58:02;;;;;;;1.50;1.07;;;;;;;;;;4994869;28;20420;-76
2021/05/21 03:00:28;;;;;;;1.20;1.10;;;;;;;;;;4995238;28;20433;-76
2021/05/21 03:02:54;;;;;;;1.30;1.10;;;;;;;;;;4995095;28;20459;-76
2021/05/21 03:05:23;;;;;;;3.63;1.50;;;;;;;;;;4989205;28;20770;-76
2021/05/21 03:07:56;;;;;;;1.30;1.20;;;12.90;1.00;;;;;;4992807;28;20426;-76
2021/05/21 03:10:26;;;;;;;2.33;1.23;;;12.90;1.00;;;;;;4995417;28;20404;-74
2021/05/21 03:12:53;;;;;;;0.97;0.87;;;;;;;;;;4994163;28;20417;-74
2021/05/21 03:15:19;;;;;;;2.00;1.37;;;13.00;1.00;;;;;;4993661;28;20523;-74
2021/05/21 03:17:45;;;;;;;1.80;1.17;;;;;;;;;;4994542;28;20408;-74
2021/05/21 03:20:13;;;;;;;1.70;1.30;;;12.90;1.00;;;;;;4994227;28;20421;-74
2021/05/21 03:22:39;;;;;;;1.30;1.20;;;;;;;;;;4994886;28;20400;-74
2021/05/21 03:25:05;;;;;;;1.63;1.10;;;12.90;1.00;;;;;;4994277;28;20452;-76
2021/05/21 03:27:32;;;;;;;3.90;1.60;;;13.00;1.00;;;;;;4994482;28;20447;-76
2021/05/21 03:29:58;;;;;;;1.70;1.13;;;13.00;1.00;;;;;;5010017;28;20436;-76
2021/05/21 03:32:24;;;;;;;2.93;1.00;;;;;;;;;;4994843;28;20411;-83
2021/05/21 03:34:51;;;;;;;38.27;4.87;;;;;;;;;;4988586;28;20476;-82
2021/05/21 03:37:17;;;;;;;2.13;1.00;;;;;;;;;;4988734;28;20811;-83
2021/05/21 03:39:43;;;;;;;3.73;1.00;;;;;;;;;;4994300;28;20456;-81
2021/05/21 03:42:09;;;;;;;2.03;1.13;;;13.10;1.00;;;;;;4994425;28;20504;-81
2021/05/21 03:44:40;;;;;;;1.67;1.10;;;13.10;1.00;;;;;;4994095;28;20425;-81
2021/05/21 03:47:06;;;;;;;3.70;1.20;;;;;;;;;;4993861;28;20252;-81
2021/05/21 03:49:32;;;;;;;2.20;1.10;;;13.10;1.00;;;;;;4983357;28;20432;-81
2021/05/21 03:52:01;;;;;;;1.57;1.10;;;12.90;1.00;;;;;;4974903;28;20444;-81
2021/05/21 03:54:27;;;;;;;6.63;1.27;;;;;;;;;;4984328;28;20456;-82
2021/05/21 03:56:53;;;;;;;2.23;1.10;;;;;;;;;;4994442;28;20755;-81
2021/05/21 03:59:20;;;;;;;1.33;1.17;;;;;;;;;;4994454;28;20394;-81
2021/05/21 04:01:47;;;;;;;1.87;1.17;;;13.10;1.00;;;;;;4994076;28;20869;-81
2021/05/21 04:04:13;;;;;;;6.90;1.83;;;;;;;;;;4987795;28;20924;-81
2021/05/21 04:06:39;;;;;;;1.37;1.00;;;;;;;;;;4992090;28;20456;-74
2021/05/21 04:09:08;;;;;;;7.73;1.17;;;13.20;1.00;;;;;;4993657;28;20395;-74
2021/05/21 04:11:35;;;;;;;1.83;1.37;;;13.20;1.00;;;;;;4992209;28;20405;-76
2021/05/21 04:14:03;;;;;;;5.10;1.10;;;13.20;1.00;;;;;;4973418;28;20808;-74
2021/05/21 04:16:29;;;;;;;1.47;0.90;;;;;;;;;;4993442;28;20428;-74
2021/05/21 04:18:55;;;;;;;3.90;1.53;;;;;;;;;;4992337;28;20421;-74
2021/05/21 04:21:21;;;;;;;1.10;1.10;;;;;;;;;;4993454;28;20413;-74
2021/05/21 04:23:48;;;;;;;1.60;1.03;;;13.40;1.00;;;;;;4992262;28;20420;-74
2021/05/21 04:26:16;;;;;;;1.53;1.27;;;13.40;1.00;;;;;;4993955;28;20578;-76
2021/05/21 04:28:42;;;;;;;1.10;1.00;;;;;;;;;;4993490;28;20397;-76
2021/05/21 04:31:08;;;;;;;2.53;1.30;;;;;;;;;;4992998;28;20387;-81
2021/05/21 04:33:35;;;;;;;1.10;1.00;;;;;;;;;;4992229;28;20508;-81
2021/05/21 04:36:01;;;;;;;2.67;1.33;;;;;;;;;;4992608;28;20479;-81
2021/05/21 04:38:27;;;;;;;4.10;0.93;;;;;;;;;;4991991;28;20440;-81
2021/05/21 04:40:53;;;;;;;5.70;1.67;;;;;;;;;;4993443;28;20397;-80
2021/05/21 04:43:26;;;;;;;1.70;1.43;;;13.80;1.00;;;;;;4993092;28;20793;-74
2021/05/21 04:45:53;;;;;;;4.03;1.00;;;;;;;;;;4993393;28;20424;-74
2021/05/21 04:48:20;;;;;;;1.67;1.20;;;13.80;1.00;;;;;;5006345;28;20420;-76
2021/05/21 04:50:46;;;;;;;1.77;0.97;;;13.90;1.00;;;;;;4990731;28;20492;-76
2021/05/21 04:53:13;;;;;;;2.33;1.30;;;13.90;1.00;;;;;;4993317;28;20768;-76
2021/05/21 04:55:42;;;;;;;3.77;1.20;;;;;;;;;;4993669;28;20807;-74
2021/05/21 04:58:09;;;;;;;2.10;1.10;;;;;;;;;;4990280;28;20480;-75
2021/05/21 05:00:35;;;;;;;2.30;1.20;;;;;;;;;;4993025;28;20413;-75
2021/05/21 05:03:08;;;;;;;2.40;1.33;;;14.10;1.00;;;;;;4992655;28;20384;-75
2021/05/21 05:05:34;;;;;;;3.03;1.40;;;;;;;;;;4993424;28;20397;-74
2021/05/21 05:08:00;;;;;;;2.77;1.17;;;;;;;;;;4986430;28;20429;-74
2021/05/21 05:10:26;;;;;;;3.87;0.97;;;;;;;;;;4992488;28;20508;-76
2021/05/21 05:12:53;;;;;;;6.23;1.50;;;14.40;1.00;;;;;;4992708;28;20489;-76
2021/05/21 05:15:19;;;;;;;2.47;1.20;;;14.40;1.00;;;;;;4993487;28;20471;-76
2021/05/21 05:17:51;;;;;;;1.90;1.20;;;;;;;;;;4993394;28;20866;-76
2021/05/21 05:20:20;;;;;;;1.70;1.10;;;;;;;;;;4993254;28;20929;-76
2021/05/21 05:22:46;;;;;;;1.97;1.10;;;;;;;;;;4992826;28;20409;-76
2021/05/21 05:25:12;;;;;;;1.90;1.00;;;14.80;1.00;;;;;;4991887;28;20807;-76
2021/05/21 05:27:39;;;;;;;5.90;1.80;;;;;;;;;;4991250;28;20437;-76
2021/05/21 05:30:06;;;;;;;1.20;1.07;;;14.90;1.00;;;;;;4993376;28;20413;-76
2021/05/21 05:32:32;;;;;;;2.10;1.00;;;;;;;;;;4993206;28;20419;-76
2021/05/21 05:34:58;;;;;;;2.10;1.30;;;;;;;;;;4992529;28;20432;-76
2021/05/21 05:37:24;;;;;;;4.83;1.20;;;;;;;;;;4995180;28;20413;-76
2021/05/21 05:39:50;;;;;;;5.60;0.90;;;;;;;;;;4996711;28;20393;-76
2021/05/21 05:42:16;;;;;;;4.13;1.53;;;;;;;;;;4995142;28;20413;-74
2021/05/21 05:44:42;;;;;;;3.53;1.40;;;;;;;;;;4996302;28;20379;-74
2021/05/21 05:47:08;;;;;;;3.17;1.30;;;;;;;;;;5005112;28;20921;-74
2021/05/21 05:49:34;;;;;;;2.30;1.17;;;;;;;;;;5016006;28;20531;-74
2021/05/21 05:52:00;;;;;;;1.83;1.30;;;;;;;;;;4994050;28;20903;-74
2021/05/21 05:54:29;;;;;;;3.33;1.40;;;;;;;;;;4986961;28;20496;-74
2021/05/21 05:56:55;;;;;;;1.63;1.10;;;;;;;;;;4995917;28;20413;-77
2021/05/21 05:59:23;;;;;;;2.07;1.10;;;;;;;;;;4996253;28;20754;-76
2021/05/21 06:01:49;;;;;;;2.03;1.00;;;;;;;;;;4995039;28;20417;-77
2021/05/21 06:04:15;;;;;;;2.87;1.43;;;;;;;;;;4990725;28;20749;-76
2021/05/21 06:06:40;;;;;;;3.03;1.10;;;;;;;;;;4994478;28;20436;-76
2021/05/21 06:09:09;;;;;;;3.37;0.90;;;;;;;;;;4994621;28;20421;-76
2021/05/21 06:11:35;;;;;;;1.30;1.00;;;;;;;;;;4996392;28;20397;-76
2021/05/21 06:14:01;;;;;;;2.33;1.20;;;;;;;;;;4996030;28;20386;-76
2021/05/21 06:16:27;;;;;;;2.53;1.10;;;;;;;;;;4996113;28;20393;-77
2021/05/21 06:18:53;;;;;;;4.17;1.20;;;;;;;;;;4994677;28;20859;-77
2021/05/21 06:21:19;;;;;;;1.23;0.90;;;;;;;;;;4983686;28;20473;-77
2021/05/21 06:23:45;;;;;;;4.87;1.27;;;;;;;;;;4986383;28;20407;-77
2021/05/21 06:28:46;;;;;;;3.27;1.10;;;16.40;1.00;;;;;;4997762;28;20446;-77
2021/05/21 06:31:12;;;;;;;2.17;1.10;;;;;;;;;;4993698;28;20448;-77
2021/05/21 06:33:40;;;;;;;2.87;0.90;;;16.60;1.00;;;;;;4991751;28;20427;-76
2021/05/21 06:36:06;;;;;;;6.67;1.43;;;;;;;;;;4995512;28;20544;-77
2021/05/21 06:38:32;;;;;;;2.57;1.30;;;;;;;;;;4995693;28;20386;-77
2021/05/21 06:40:58;;;;;;;7.03;1.53;;;;;;;;;;5003162;28;20471;-78
2021/05/21 06:43:28;;;;;;;4.73;1.40;;;16.80;1.00;;;;;;4993173;28;20411;-77
2021/05/21 06:45:54;;;;;;;4.73;1.23;;;;;;;;;;4994132;28;20418;-76
2021/05/21 06:48:21;;;;;;;1.20;0.80;;;;;;;;;;4987847;28;20427;-77
2021/05/21 06:50:47;;;;;;;1.57;1.23;;;;;;;;;;4995282;28;20710;-77
2021/05/21 06:53:13;;;;;;;1.67;0.90;;;;;;;;;;4995023;28;20913;-77
2021/05/21 06:55:40;;;;;;;6.53;1.13;;;;;;;;;;4995036;28;20441;-77
2021/05/21 06:58:06;;;;;;;8.07;1.33;;;;;;;;;;4990079;28;20422;-74
2021/05/21 07:00:38;;;;;;;2.90;1.00;;;16.70;1.00;;;;;;4991646;28;20437;-74
2021/05/21 07:03:04;;;;;;;3.93;1.30;;;;;;;;;;4994950;28;20873;-74
2021/05/21 07:05:30;;;;;;;2.83;1.00;;;;;;;;;;4994998;28;20890;-74
2021/05/21 07:07:56;;;;;;;1.30;0.80;;;;;;;;;;4994929;28;20379;-74
2021/05/21 07:10:22;;;;;;;5.60;1.43;;;;;;;;;;4994851;28;20413;-74
2021/05/21 07:12:48;;;;;;;1.67;1.10;;;;;;;;;;4995353;28;20408;-76
2021/05/21 07:15:14;;;;;;;1.67;0.90;;;;;;;;;;4994608;28;20477;-76
2021/05/21 07:17:40;;;;;;;1.77;0.90;;;;;;;;;;4986226;28;20404;-76
2021/05/21 07:20:06;;;;;;;2.00;0.97;;;16.40;1.00;;;;;;4990223;28;20396;-76
2021/05/21 07:22:32;;;;;;;1.67;0.97;;;;;;;;;;4992069;28;20959;-76
2021/05/21 07:24:58;;;;;;;6.33;1.73;;;16.80;1.00;;;;;;4992280;28;20436;-76
2021/05/21 07:27:23;;;;;;;1.20;0.90;;;16.60;1.00;;;;;;4994817;28;20395;-74
2021/05/21 07:29:49;;;;;;;2.70;0.80;;;;;;;;;;4974833;28;20193;-74
2021/05/21 07:32:15;;;;;;;2.80;1.20;;;;;;;;;;4975047;28;20622;-74
2021/05/21 07:34:41;;;;;;;3.30;1.47;;;;;;;;;;4975292;28;20420;-74
2021/05/21 07:37:07;;;;;;;1.70;1.03;;;;;;;;;;4975125;28;20384;-74
2021/05/21 07:39:33;;;;;;;3.53;0.97;;;;;;;;;;4975214;28;20365;-74
2021/05/21 07:41:59;;;;;;;1.47;1.10;;;;;;;;;;4994658;28;20407;-76
2021/05/21 07:44:26;;;;;;;1.53;0.97;;;17.20;1.00;;;;;;4982145;28;20504;-76
2021/05/21 07:46:52;;;;;;;4.17;1.07;;;;;;;;;;4977433;28;20987;-78
2021/05/21 07:49:22;;;;;;;4.97;1.07;;;;;;;;;;4992820;28;20409;-77
2021/05/21 07:51:50;;;;;;;3.90;1.17;;;17.30;1.00;;;;;;4994321;28;20389;-75
2021/05/21 07:54:16;;;;;;;2.00;0.80;;;17.30;1.00;;;;;;4994217;28;20430;-75
2021/05/21 07:56:43;;;;;;;2.17;0.90;;;;;;;;;;4994151;28;20410;-75
2021/05/21 07:59:11;;;;;;;4.60;1.47;;;;;;;;;;4993736;28;20405;-80
2021/05/21 08:01:37;;;;;;;5.20;1.37;;;;;;;;;;4993938;28;20489;-75
2021/05/21 08:04:03;;;;;;;4.13;1.00;;;17.50;1.00;;;;;;4994033;28;20399;-77
2021/05/21 08:06:29;;;;;;;3.63;1.00;;;;;;;;;;4991125;28;20409;-77
2021/05/21 08:08:55;;;;;;;2.40;1.20;;;;;;;;;;4980987;28;20414;-74
2021/05/21 08:11:21;;;;;;;3.40;1.00;;;;;;;;;;4993672;28;20874;-75
2021/05/21 08:13:47;;;;;;;8.53;1.40;;;;;;;;;;4990496;28;20398;-75
2021/05/21 08:16:14;;;;;;;8.20;0.80;;;;;;;;;;4991378;28;20616;-75
2021/05/21 08:18:40;;;;;;;1.00;0.80;;;;;;;;;;4986999;28;20861;-76
2021/05/21 08:21:06;;;;;;;0.80;0.80;;;17.50;1.00;;;;;;4986221;28;20385;-75
2021/05/21 08:23:33;;;;;;;2.80;1.00;;;;;;;;;;4991153;28;20397;-75
2021/05/21 08:25:59;;;;;;;2.47;1.10;;;;;;;;;;4987443;28;20442;-75
2021/05/21 08:28:26;;;;;;;1.80;1.00;;;;;;;;;;4983293;28;20433;-75
2021/05/21 08:30:52;;;;;;;1.83;1.00;;;;;;;;;;4982612;28;20467;-76
2021/05/21 08:33:18;;;;;;;21.03;1.30;;;;;;;;;;4993622;28;20408;-75
2021/05/21 08:35:44;;;;;;;8.63;1.30;;;;;;;;;;4993626;28;20934;-74
2021/05/21 08:38:10;;;;;;;8.97;1.20;;;;;;;;;;4993473;28;20404;-75
2021/05/21 08:40:38;;;;;;;4.57;1.20;;;;;;;;;;4993349;28;20387;-75
2021/05/21 08:43:07;;;;;;;1.50;0.90;;;17.50;1.00;;;;;;4992629;28;20460;-75
2021/05/21 08:45:33;;;;;;;2.87;1.30;;;;;;;;;;4993399;28;20479;-75
2021/05/21 08:48:01;;;;;;;1.13;0.90;;;;;;;;;;4993438;28;20429;-75
2021/05/21 08:50:27;;;;;;;3.03;1.00;;;;;;;;;;4993573;28;20794;-75
2021/05/21 08:52:53;;;;;;;3.27;1.10;;;;;;;;;;4993587;28;20496;-74
2021/05/21 08:55:19;;;;;;;5.80;1.00;;;;;;;;;;4993607;28;20459;-77
2021/05/21 08:57:45;;;;;;;3.80;1.00;;;;;;;;;;4993756;28;20380;-74
2021/05/21 09:00:12;;;;;;;1.83;0.90;;;17.10;1.00;;;;;;4989212;28;20467;-74
2021/05/21 09:02:39;;;;;;;1.23;0.80;;;;;;;;;;4989330;28;20406;-74
2021/05/21 09:05:07;;;;;;;2.20;0.77;;;17.40;1.00;;;;;;4993433;28;20364;-74
2021/05/21 09:07:40;;;;;;;5.80;1.47;;;17.50;1.00;;;;;;4993208;28;20980;-74
2021/05/21 09:10:06;;;;;;;5.53;1.17;;;;;;;;;;4993157;28;20389;-72
2021/05/21 09:12:47;;;;;;;5.53;1.30;;;;;;;;;;4996366;28;20483;-73
2021/05/21 09:15:14;;;;;;;4.40;1.07;;;;;;;;;;4993212;28;20878;-76
2021/05/21 09:17:56;;;;;;;11.27;1.40;;;;;;;;;;4996632;28;20478;-78
2021/05/21 09:20:23;;;;;;;8.30;1.30;;;;;;;;;;4997069;28;20398;-76
2021/05/21 09:23:10;;;;;;;5.03;1.07;;;17.70;1.00;;;;;;4996675;28;20475;-76
2021/05/21 09:25:42;;;;;;;4.80;1.10;;;17.80;1.00;;;;;;4997091;28;20924;-76
2021/05/21 09:28:35;;;;;;;9.53;1.07;;;17.90;1.00;;;;;;4996854;28;20460;-75
2021/05/21 09:31:14;;;;;;;2.93;1.30;;;18.00;1.00;;;;;;4984871;28;20479;-76
2021/05/21 09:33:43;;;;;;;10.33;1.83;;;13.60;1.00;;;;;;4976632;28;20410;-76
2021/05/21 09:36:09;;;;;;;16.73;1.90;;;;;;;;;;4985770;28;20559;-76
2021/05/21 09:38:54;;;;;;;6.00;1.10;;;17.80;1.00;;;;;;4981934;28;20974;-74
2021/05/21 09:41:20;;;;;;;4.47;0.80;;;;;;;;;;4991078;28;20467;-74
2021/05/21 09:43:51;;;;;;;1.50;0.83;;;17.90;1.00;;;;;;4995539;28;20737;-74
2021/05/21 09:46:17;;;;;;;8.67;1.40;;;;;;;;;;4996459;28;20444;-74
2021/05/21 09:48:43;;;;;;;2.33;1.10;;;;;;;;;;4991369;28;20406;-74
2021/05/21 09:51:09;;;;;;;2.00;1.17;;;;;;;;;;4996634;28;20532;-75
2021/05/21 09:53:35;;;;;;;3.27;1.00;;;;;;;;;;4993186;28;20407;-75
2021/05/21 09:56:05;;;;;;;3.90;1.27;;;17.90;1.00;;;;;;4986679;28;20815;-76
2021/05/21 09:58:40;;;;;;;3.00;1.40;;;17.90;1.00;;;;;;4993952;28;20398;-75
2021/05/21 10:01:18;;;;;;;5.67;1.33;;;18.20;1.00;;;;;;4994885;28;20404;-75
2021/05/21 10:03:49;;;;;;;5.63;1.00;;;18.30;1.00;;;;;;4995913;28;20429;-76
2021/05/21 10:06:16;;;;;;;4.87;1.47;;;18.40;1.00;;;;;;4994149;28;20431;-75
2021/05/21 10:08:45;;;;;;;16.30;1.47;;;18.40;1.00;;;;;;4995283;28;20423;-74
2021/05/21 10:11:11;;;;;;;3.87;0.93;;;;;;;;;;4994038;28;20424;-75
2021/05/21 10:13:42;;;;;;;15.53;1.77;;;18.40;1.00;;;;;;4983689;28;20816;-77
2021/05/21 10:16:10;;;;;;;3.53;1.20;;;18.40;1.00;;;;;;4996444;28;20471;-77
2021/05/21 10:18:37;;;;;;;3.60;1.27;;;18.50;1.00;;;;;;4996311;28;20481;-76
2021/05/21 10:21:04;;;;;;;3.70;1.40;;;18.50;1.00;;;;;;4994402;28;20422;-75
2021/05/21 10:23:37;;;;;;;27.77;2.90;;;18.30;1.00;;;;;;4993116;28;20427;-76
2021/05/21 10:26:09;;;;;;;7.20;1.30;;;18.50;1.00;;;;;;4983362;28;20950;-75
2021/05/21 10:28:39;;;;;;;6.90;1.50;;;18.50;1.00;;;;;;4991418;28;20757;-74
2021/05/21 10:31:09;;;;;;;3.27;1.23;;;;;;;;;;4979382;28;20438;-74
2021/05/21 10:33:36;;;;;;;3.37;1.00;;;18.40;1.00;;;;;;4995634;28;20426;-74
2021/05/21 10:36:22;;;;;;;7.30;1.10;;;18.40;1.00;;;;;;4993094;28;20473;-74
2021/05/21 10:39:06;;;;;;;6.43;1.83;;;18.60;1.00;;;;;;4990921;28;20415;-76
2021/05/21 10:41:32;;;;;;;7.57;1.63;;;;;;;;;;4982256;28;20416;-75
2021/05/21 10:43:59;;;;;;;8.43;1.57;;;;;;;;;;4987897;28;20917;-76
2021/05/21 10:46:28;;;;;;;4.50;1.20;;;18.60;1.00;;;;;;4985514;28;20426;-75
2021/05/21 10:49:03;;;;;;;6.27;1.23;;;18.70;1.00;;;;;;4995523;28;20438;-75
2021/05/21 10:51:49;;;;;;;6.00;1.47;;;18.90;1.00;;;;;;4995057;28;20437;-75
2021/05/21 10:54:44;;;;;;;8.27;1.50;;;18.80;1.00;;;;;;4993733;28;20424;-75
2021/05/21 10:57:12;;;;;;;7.07;1.40;;;18.30;1.00;;;;;;4969558;28;20420;-75
2021/05/21 10:59:56;;;;;;;3.53;1.90;;;18.50;1.00;;;;;;4972190;28;20926;-75
2021/05/21 11:02:23;;;;;;;5.03;1.80;;;18.40;1.00;;;;;;4967883;28;20439;-75
2021/05/21 11:04:50;;;;;;;4.63;1.27;;;18.40;1.00;;;;;;4958803;28;20473;-76
2021/05/21 11:07:39;;;;;;;9.30;1.87;;;18.40;1.00;;;;;;4959043;28;20948;-73
2021/05/21 11:10:07;;;;;;;3.37;1.20;;;18.50;1.00;;;;;;4939754;29;20538;-72
2021/05/21 11:12:52;;;;;;;5.70;1.30;;;18.80;1.00;;;;;;4955472;28;20450;-75
2021/05/21 11:15:42;;;;;;;76.30;7.00;;;19.00;1.00;;;;;;4953341;28;20488;-74
2021/05/21 11:18:11;;;;;;;7.20;1.10;;;19.00;1.00;;;;;;4969069;28;20814;-74
2021/05/21 11:20:52;;;;;;;5.30;1.40;;;18.80;1.00;;;;;;4966977;28;21009;-74
2021/05/21 11:23:19;;;;;;;7.10;1.60;;;;;;;;;;4966529;28;20419;-74
2021/05/21 11:26:17;;;;;;;6.70;1.23;;;18.90;1.00;;;;;;4955078;28;20483;-74
2021/05/21 11:28:47;;;;;;;8.30;1.03;;;18.80;1.00;;;;;;4972640;28;20463;-75
2021/05/21 11:31:24;;;;;;;12.63;1.97;;;18.60;1.00;;;;;;4967144;28;20850;-75
2021/05/21 11:33:51;;;;;;;8.23;1.30;;;18.60;1.00;;;;;;4974553;28;20457;-75
2021/05/21 11:36:19;;;;;;;43.60;4.73;;;18.60;1.00;;;;;;4994642;28;20489;-75
2021/05/21 11:38:45;;;;;;;7.33;1.50;;;;;;;;;;4992474;28;20529;-76
2021/05/21 11:41:12;;;;;;;3.67;1.10;;;;;;;;;;4994187;28;20374;-75
2021/05/21 11:43:39;;;;;;;5.03;1.20;;;18.50;1.00;;;;;;4994351;28;20461;-75
2021/05/21 11:46:18;;;;;;;4.53;1.30;;;18.60;1.00;;;;;;4994355;28;20469;-76
2021/05/21 11:48:45;;;;;;;3.23;1.00;;;18.80;1.00;;;;;;4994202;28;20514;-74
2021/05/21 11:51:16;;;;;;;25.13;1.83;;;18.90;1.00;;;;;;4994014;28;20411;-74
2021/05/21 11:54:05;;;;;;;4.10;1.27;;;18.90;1.00;;;;;;4992623;28;20433;-77
2021/05/21 11:56:36;;;;;;;3.40;1.10;;;18.90;1.00;;;;;;4994140;28;20462;-77
2021/05/21 11:59:06;;;;;;;2.83;1.30;;;18.90;1.00;;;;;;4994171;28;20398;-76
2021/05/21 12:01:33;;;;;;;3.00;1.10;;;19.00;1.00;;;;;;4994005;28;20411;-76
2021/05/21 12:04:07;;;;;;;4.83;1.37;;;;;;;;;;4993534;28;20437;-76
2021/05/21 12:06:36;;;;;;;6.43;1.33;;;19.00;1.00;;;;;;4993625;28;20419;-75
2021/05/21 12:09:06;;;;;;;8.17;1.60;;;19.00;1.00;;;;;;4993939;28;20474;-75
2021/05/21 12:11:33;;;;;;;5.00;1.13;;;;;;;;;;4992663;28;20892;-76
2021/05/21 12:14:03;;;;;;;2.87;0.87;;;;;;;;;;4993871;28;20407;-76
2021/05/21 12:16:30;;;;;;;4.37;1.23;;;;;;;;;;4992547;28;20470;-76
2021/05/21 12:18:57;;;;;;;4.10;1.17;;;;;;;;;;4993178;28;20463;-76
2021/05/21 12:21:29;;;;;;;13.30;2.23;;;19.20;1.00;;;;;;4992534;28;20473;-75
2021/05/21 12:23:57;;;;;;;3.33;0.90;;;19.10;1.00;;;;;;4993546;28;20403;-76
2021/05/21 12:26:25;;;;;;;5.83;1.23;;;19.10;1.00;;;;;;4992479;28;20412;-76
2021/05/21 12:28:53;;;;;;;3.40;1.00;;;;;;;;;;4993056;28;20863;-77
2021/05/21 12:31:24;;;;;;;3.67;1.10;;;19.20;1.00;;;;;;4992758;28;20401;-74
2021/05/21 12:33:51;;;;;;;2.47;1.00;;;;;;;;;;4993598;28;20382;-75
2021/05/21 12:36:17;;;;;;;6.27;1.30;;;;;;;;;;4992997;28;20447;-74
2021/05/21 12:38:51;;;;;;;3.53;1.47;;;;;;;;;;4991608;28;20780;-75
2021/05/21 12:41:19;;;;;;;7.97;1.67;;;19.50;1.00;;;;;;4992929;28;20880;-75
2021/05/21 12:43:46;;;;;;;5.37;1.07;;;;;;;;;;4974128;28;20403;-75
2021/05/21 12:46:14;;;;;;;7.27;1.43;;;19.70;1.00;;;;;;4989450;28;20520;-77
2021/05/21 12:48:45;;;;;;;3.00;0.77;;;19.50;1.00;;;;;;4993572;28;20412;-78
2021/05/21 12:51:27;;;;;;;5.07;1.13;;;19.30;1.00;;;;;;4993412;28;20915;-79
2021/05/21 12:53:53;;;;;;;3.43;1.13;;;;;;;;;;4993545;28;20400;-78
2021/05/21 12:56:34;;;;;;;5.40;1.13;;;19.50;1.00;;;;;;4993405;28;20546;-79
2021/05/21 12:59:04;;;;;;;4.00;0.97;;;19.60;1.00;;;;;;4992687;28;20793;-79
2021/05/21 13:01:30;;;;;;;5.13;1.13;;;;;;;;;;4993748;28;20411;-76
2021/05/21 13:03:58;;;;;;;4.03;1.10;;;19.70;1.00;;;;;;4992125;28;20444;-78
2021/05/21 13:06:33;;;;;;;17.83;2.10;;;19.60;1.00;;;;;;4993327;28;20410;-77
2021/05/21 13:09:04;;;;;;;3.83;1.30;;;19.60;1.00;;;;;;4991660;28;20570;-76
2021/05/21 13:11:30;;;;;;;3.23;0.97;;;;;;;;;;4992815;28;20428;-79
2021/05/21 13:14:04;;;;;;;2.80;0.83;;;19.50;1.00;;;;;;4993350;28;20793;-78
2021/05/21 13:16:49;;;;;;;5.70;1.10;;;19.50;1.00;;;;;;4993663;28;20438;-77
2021/05/21 13:19:29;;;;;;;8.70;1.33;;;19.70;1.00;;;;;;4993563;28;20399;-78
2021/05/21 13:22:10;;;;;;;7.97;1.30;;;19.60;1.00;;;;;;4992994;28;20404;-77
2021/05/21 13:24:40;;;;;;;7.40;1.47;;;19.80;1.00;;;;;;4992963;28;20822;-77
2021/05/21 13:27:06;;;;;;;8.20;1.67;;;;;;;;;;4993118;28;20427;-76
2021/05/21 13:29:32;;;;;;;2.77;1.10;;;;;;;;;;4992851;28;20868;-77
2021/05/21 13:31:58;;;;;;;4.77;1.20;;;;;;;;;;4993338;28;20416;-77
2021/05/21 13:34:24;;;;;;;4.87;1.20;;;;;;;;;;4992695;28;20416;-76
2021/05/21 13:36:50;;;;;;;4.60;1.10;;;;;;;;;;4992925;28;20887;-76
2021/05/21 13:39:16;;;;;;;2.33;0.80;;;;;;;;;;5007905;28;20522;-78
2021/05/21 13:41:42;;;;;;;5.13;1.20;;;;;;;;;;5007888;28;20383;-78
2021/05/21 13:44:08;;;;;;;9.20;1.70;;;;;;;;;;4988309;28;20423;-76
2021/05/21 13:46:34;;;;;;;4.67;1.10;;;;;;;;;;4991606;28;20383;-77
2021/05/21 13:49:11;;;;;;;1.57;0.90;;;20.10;1.00;;;;;;4993584;28;20439;-77
2021/05/21 13:51:37;;;;;;;8.07;1.07;;;20.10;1.00;;;;;;4974473;28;20460;-77
2021/05/21 13:54:10;;;;;;;7.70;1.37;;;20.10;1.00;;;;;;4974243;28;20406;-78
2021/05/21 13:56:36;;;;;;;15.37;1.70;;;19.90;1.00;;;;;;4988693;28;20452;-77
2021/05/21 13:59:02;;;;;;;6.40;1.20;;;19.60;1.00;;;;;;4995863;28;20497;-78
2021/05/21 14:01:28;;;;;;;4.30;1.03;;;19.50;1.00;;;;;;4997509;28;20188;-77
2021/05/21 14:03:54;;;;;;;2.97;1.20;;;;;;;;;;4996745;28;20420;-76
2021/05/21 14:06:23;;;;;;;6.23;1.53;;;20.00;1.00;;;;;;4997023;28;21350;-76